KMBS

Mbs International Airport

Saginaw, Michigan, USA
KMBS 162325Z 1700/1724 03005KT P6SM SCT250 FM171300 10005KT P6SM BKN030 OVC150 FM171700 12008KT P6SM OVC025 FM172200 16008KT 6SM -SN OVC015
Issued Valid From Valid To
Jan-16 @ 23:25 UTC
(6 hours ago)
Jan-17 @ 00:00 UTC
(5 hours ago)
Jan-18 @ 00:00 UTC
(in 19 hours)
Jan-17 @ 00:00 to Jan-17 @ 13:00
KMBS 162325Z 1700/1724 03005KT P6SM SCT250
Wind Visibility Clouds
30° at 5 knots Greater than 6 miles
  • Scattered at 25,000' AGL
From Jan-17 @ 13:00 to Jan-17 @ 17:00
FM171300 10005KT P6SM BKN030 OVC150
Wind Visibility Clouds
100° at 5 knots Greater than 6 miles
  • Broken at 3,000' AGL
  • Overcast at 15,000' AGL
From Jan-17 @ 17:00 to Jan-17 @ 22:00
FM171700 12008KT P6SM OVC025
Wind Visibility Clouds
120° at 8 knots Greater than 6 miles
  • Overcast at 2,500' AGL
From Jan-17 @ 22:00 to Jan-18 @ 00:00
FM172200 16008KT 6SM -SN OVC015
Wind Visibility Clouds Conditions
160° at 8 knots 6 miles
  • Overcast at 1,500' AGL
  • Light Snow
KMBS 162325Z 1700/1724 03005KT P6SM SCT250 FM171300 10005KT P6SM BKN030 OVC150 FM171700 12008KT P6SM OVC025 FM172200 16008KT 6SM -SN OVC015
Issued Jan-16 @ 23:25 UTC
(6 hours ago)
Valid From Jan-17 @ 00:00 UTC
(5 hours ago)
Valid To Jan-18 @ 00:00 UTC
(in 19 hours)
Jan-17 @ 00:00 - Jan-17 @ 13:00
Wind Visibility
30° at 5 knots Greater than 6 miles
Clouds
  • Scattered at 25,000' AGL
From Jan-17 @ 13:00 - Jan-17 @ 17:00
Wind Visibility
100° at 5 knots Greater than 6 miles
Clouds
  • Broken at 3,000' AGL
  • Overcast at 15,000' AGL
From Jan-17 @ 17:00 - Jan-17 @ 22:00
Wind Visibility
120° at 8 knots Greater than 6 miles
Clouds
  • Overcast at 2,500' AGL
From Jan-17 @ 22:00 - Jan-18 @ 00:00
Wind Visibility
160° at 8 knots 6 miles
Clouds
  • Overcast at 1,500' AGL
Conditions
  • Light Snow